createdAt,value
2023-08-07T00:00:41.376Z,0.143
2023-08-07T00:01:41.148Z,0.143
2023-08-07T00:02:40.691Z,0.161
2023-08-07T00:03:41.448Z,0.152
2023-08-07T00:04:41.109Z,0.143
2023-08-07T00:06:41.281Z,0.134
2023-08-07T00:07:40.686Z,0.152
2023-08-07T00:08:41.170Z,0.134
2023-08-07T00:09:40.713Z,0.125
2023-08-07T00:10:41.167Z,0.125
2023-08-07T00:11:41.414Z,0.125
2023-08-07T00:13:41.276Z,0.134
2023-08-07T00:14:40.743Z,0.125
2023-08-07T00:15:41.403Z,0.116
2023-08-07T00:16:40.878Z,0.107
2023-08-07T00:17:41.557Z,0.116
2023-08-07T00:18:41.084Z,0.125
2023-08-07T00:19:40.499Z,0.125
2023-08-07T00:20:41.073Z,0.134
2023-08-07T00:21:40.637Z,0.125
2023-08-07T00:22:41.174Z,0.116
2023-08-07T00:24:41.328Z,0.116
2023-08-07T00:25:40.758Z,0.107
2023-08-07T00:26:41.302Z,0.116
2023-08-07T00:27:40.698Z,0.116
2023-08-07T00:28:41.189Z,0.125
2023-08-07T00:29:40.677Z,0.125
2023-08-07T00:30:41.131Z,0.134
2023-08-07T00:31:40.821Z,0.134
2023-08-07T00:32:41.513Z,0.143
2023-08-07T00:33:41.027Z,0.143
2023-08-07T00:34:40.535Z,0.143
2023-08-07T00:35:41.034Z,0.152
2023-08-07T00:38:40.664Z,0.161
2023-08-07T00:39:41.111Z,0.169
2023-08-07T00:40:40.615Z,0.161
2023-08-07T00:41:41.090Z,0.161
2023-08-07T00:42:40.516Z,0.161
2023-08-07T00:43:40.975Z,0.152
2023-08-07T00:44:41.560Z,0.152
2023-08-07T00:45:41.015Z,0.152
2023-08-07T00:46:40.776Z,0.152
2023-08-07T00:47:41.699Z,0.143
2023-08-07T00:48:41.266Z,0.152
2023-08-07T00:49:40.805Z,0.143
2023-08-07T00:51:40.518Z,0.161
2023-08-07T00:52:41.002Z,0.161
2023-08-07T00:53:40.730Z,0.152
2023-08-07T00:54:41.172Z,0.152
2023-08-07T00:55:40.654Z,0.152
2023-08-07T00:56:41.100Z,0.152
2023-08-07T00:57:40.616Z,0.161
2023-08-07T00:58:41.091Z,0.152
2023-08-07T00:59:40.534Z,0.152
2023-08-07T01:00:41.131Z,0.161
2023-08-07T01:01:40.773Z,0.161
2023-08-07T01:02:41.689Z,0.161
2023-08-07T01:03:41.262Z,0.161
2023-08-07T01:04:40.799Z,0.161
2023-08-07T01:05:41.214Z,0.178
2023-08-07T01:06:40.667Z,0.178
2023-08-07T01:07:41.138Z,0.169
2023-08-07T01:08:40.671Z,0.152
2023-08-07T01:09:41.150Z,0.152
2023-08-07T01:10:40.591Z,0.143
2023-08-07T01:11:41.066Z,0.161
2023-08-07T01:12:40.641Z,0.152
2023-08-07T01:13:41.165Z,0.161
2023-08-07T01:14:40.668Z,0.161
2023-08-07T01:15:41.241Z,0.152
2023-08-07T01:16:40.968Z,0.161
2023-08-07T01:17:40.760Z,0.161
2023-08-07T01:18:41.513Z,0.152
2023-08-07T01:19:41.066Z,0.152
2023-08-07T01:23:40.883Z,0.143
2023-08-07T01:24:41.444Z,0.143
2023-08-07T01:25:40.896Z,0.143
2023-08-07T01:26:41.325Z,0.143
2023-08-07T01:27:40.780Z,0.143
2023-08-07T01:28:41.263Z,0.134
2023-08-07T01:29:40.966Z,0.134
2023-08-07T01:30:40.543Z,0.143
2023-08-07T01:31:41.187Z,0.143
2023-08-07T01:32:40.877Z,0.143
2023-08-07T01:33:41.553Z,0.134
2023-08-07T01:34:41.174Z,0.143
2023-08-07T01:35:40.622Z,0.143
2023-08-07T01:36:41.124Z,0.143
2023-08-07T01:37:40.688Z,0.143
2023-08-07T01:38:41.203Z,0.134
2023-08-07T01:39:40.799Z,0.143
2023-08-07T01:40:41.459Z,0.134
2023-08-07T01:41:40.909Z,0.152
2023-08-07T01:42:41.619Z,0.152
2023-08-07T01:43:41.014Z,0.143
2023-08-07T01:44:40.432Z,0.143
2023-08-07T01:45:40.970Z,0.143
2023-08-07T01:46:40.623Z,0.134
2023-08-07T01:47:42.012Z,0.143
2023-08-07T01:48:40.939Z,0.143
2023-08-07T01:49:41.533Z,0.134
2023-08-07T01:50:41.127Z,0.143
2023-08-07T01:51:40.557Z,0.143
2023-08-07T01:52:41.031Z,0.152
2023-08-07T01:53:40.471Z,0.161
2023-08-07T01:54:40.914Z,0.152
2023-08-07T01:55:41.344Z,0.152
2023-08-07T01:56:40.759Z,0.152
2023-08-07T01:57:41.213Z,0.143
2023-08-07T01:58:41.090Z,0.143
2023-08-07T01:59:40.486Z,0.134
2023-08-07T02:00:41.009Z,0.134
2023-08-07T02:01:40.664Z,0.125
2023-08-07T02:02:41.514Z,0.134
2023-08-07T02:03:42.083Z,0.143
2023-08-07T02:04:40.674Z,0.152
2023-08-07T02:05:41.230Z,0.134
2023-08-07T02:06:40.654Z,0.134
2023-08-07T02:07:41.111Z,0.134
2023-08-07T02:08:40.555Z,0.143
2023-08-07T02:09:41.165Z,0.143
2023-08-07T02:10:40.618Z,0.134
2023-08-07T02:11:41.130Z,0.134
2023-08-07T02:12:40.633Z,0.125
2023-08-07T02:13:41.153Z,0.125
2023-08-07T02:14:40.562Z,0.134
2023-08-07T02:15:41.113Z,0.134
2023-08-07T02:17:41.876Z,0.125
2023-08-07T02:18:41.412Z,0.143
2023-08-07T02:19:41.002Z,0.134
2023-08-07T02:21:40.898Z,0.125
2023-08-07T02:22:41.423Z,0.134
2023-08-07T02:23:40.863Z,0.143
2023-08-07T02:24:41.338Z,0.143
2023-08-07T02:25:40.829Z,0.143
2023-08-07T02:26:41.363Z,0.143
2023-08-07T02:27:40.799Z,0.134
2023-08-07T02:28:41.220Z,0.134
2023-08-07T02:29:40.894Z,0.125
2023-08-07T02:30:41.513Z,0.143
2023-08-07T02:31:41.219Z,0.143
2023-08-07T02:32:41.003Z,0.143
2023-08-07T02:33:40.469Z,0.143
2023-08-07T02:34:40.927Z,0.143
2023-08-07T02:35:41.463Z,0.143
2023-08-07T02:37:41.360Z,0.143
2023-08-07T02:38:40.792Z,0.143
2023-08-07T02:39:41.236Z,0.125
2023-08-07T02:40:40.780Z,0.134
2023-08-07T02:41:41.334Z,0.143
2023-08-07T02:42:40.832Z,0.125
2023-08-07T02:43:41.340Z,0.125
2023-08-07T02:44:40.983Z,0.116
2023-08-07T02:45:40.825Z,0.134
2023-08-07T02:46:41.323Z,0.125
2023-08-07T02:47:41.079Z,0.125
2023-08-07T02:48:40.621Z,0.143
2023-08-07T02:49:41.211Z,0.134
2023-08-07T02:50:40.778Z,0.125
2023-08-07T02:51:41.308Z,0.134
2023-08-07T02:53:41.459Z,0.143
2023-08-07T02:54:40.919Z,0.143
2023-08-07T02:55:41.404Z,0.143
2023-08-07T02:56:40.854Z,0.152
2023-08-07T02:57:41.292Z,0.161
2023-08-07T02:58:40.895Z,0.161
2023-08-07T02:59:41.368Z,0.169
2023-08-07T03:00:40.879Z,0.178
2023-08-07T03:01:41.722Z,0.187
2023-08-07T03:02:41.247Z,0.187
2023-08-07T03:03:40.731Z,0.205
2023-08-07T03:04:41.465Z,0.223
2023-08-07T03:05:41.649Z,0.232
2023-08-07T03:06:41.210Z,0.259
2023-08-07T03:07:40.644Z,0.276
2023-08-07T03:08:41.195Z,0.312
2023-08-07T03:09:40.649Z,0.348
2023-08-07T03:10:41.154Z,0.392
2023-08-07T03:11:40.739Z,0.437
2023-08-07T03:12:41.250Z,0.481
2023-08-07T03:13:40.674Z,0.571
2023-08-07T03:14:41.278Z,0.651
2023-08-07T03:15:40.834Z,0.749
2023-08-07T03:16:41.525Z,0.874
2023-08-07T03:17:41.260Z,1.034
2023-08-07T03:18:40.915Z,1.213
2023-08-07T03:19:41.506Z,1.373
2023-08-07T03:20:41.101Z,1.596
2023-08-07T03:21:40.550Z,1.721
2023-08-07T03:22:40.971Z,2.122
2023-08-07T03:23:41.481Z,2.550
2023-08-07T03:24:41.183Z,2.675
2023-08-07T03:25:40.672Z,3.121
2023-08-07T03:26:41.210Z,3.781
2023-08-07T03:27:40.596Z,4.619
2023-08-07T03:28:41.046Z,5.609
2023-08-07T03:29:40.473Z,6.126
2023-08-07T03:30:40.979Z,7.214
2023-08-07T03:31:40.792Z,7.793
2023-08-07T03:32:41.525Z,9.773
2023-08-07T03:33:41.083Z,10.664
2023-08-07T03:34:40.530Z,11.984
2023-08-07T03:35:40.979Z,13.125
2023-08-07T03:40:41.455Z,33.090
2023-08-07T03:41:40.920Z,41.980
2023-08-07T03:42:41.718Z,45.778
2023-08-07T03:43:41.161Z,54.543
2023-08-07T03:44:40.711Z,61.712
2023-08-07T03:45:41.496Z,68.658
2023-08-07T03:46:40.966Z,78.163
2023-08-07T03:47:40.703Z,86.866
2023-08-07T03:48:41.504Z,95.917
2023-08-07T03:49:40.877Z,95.284
2023-08-07T03:50:41.467Z,104.040
2023-08-07T03:51:40.948Z,113.215
2023-08-07T03:52:41.459Z,139.858
2023-08-07T03:54:41.411Z,154.365
2023-08-07T03:55:40.931Z,176.131
2023-08-07T03:56:41.679Z,175.373
2023-08-07T03:57:41.118Z,203.024
2023-08-07T03:58:40.652Z,225.743
2023-08-07T03:59:41.042Z,234.829
2023-08-07T04:00:40.540Z,265.440
2023-08-07T04:01:41.364Z,286.555
2023-08-07T04:02:41.074Z,306.448
2023-08-07T04:05:40.850Z,394.010
2023-08-07T04:06:41.339Z,448.776
2023-08-07T04:07:40.777Z,460.269
2023-08-07T04:08:41.238Z,496.979
2023-08-07T04:09:40.742Z,537.515
2023-08-07T04:10:41.215Z,577.158
2023-08-07T04:11:40.648Z,611.184
2023-08-07T04:12:41.084Z,633.975
2023-08-07T04:13:40.638Z,642.482
2023-08-07T04:14:41.124Z,648.741
2023-08-07T04:15:40.995Z,640.716
2023-08-07T04:16:40.410Z,749.856
2023-08-07T04:17:41.037Z,773.128
2023-08-07T04:18:40.614Z,797.524
2023-08-07T04:19:41.377Z,791.425
2023-08-07T04:22:41.047Z,870.391
2023-08-07T04:23:43.078Z,877.614
2023-08-07T04:24:41.082Z,973.112
2023-08-07T04:25:40.632Z,960.432
2023-08-07T04:26:41.138Z,1056.411
2023-08-07T04:27:40.666Z,1139.229
2023-08-07T04:28:41.287Z,1173.094
2023-08-07T04:29:41.128Z,1124.463
2023-08-07T04:30:40.607Z,1203.750
2023-08-07T04:31:41.356Z,1260.085
2023-08-07T04:32:41.230Z,1377.572
2023-08-07T04:33:40.755Z,1354.781
2023-08-07T04:34:41.180Z,1284.963
2023-08-07T04:35:40.792Z,1557.652
2023-08-07T04:36:41.313Z,1558.615
2023-08-07T04:37:41.682Z,1571.455
2023-08-07T04:38:41.339Z,1577.394
2023-08-07T04:39:40.763Z,1440.006
2023-08-07T04:40:41.403Z,1542.566
2023-08-07T04:42:40.387Z,1545.615
2023-08-07T04:43:40.847Z,2008.016
2023-08-07T04:44:41.321Z,2089.871
2023-08-07T04:45:43.699Z,2178.948
2023-08-07T04:46:41.631Z,2146.045
2023-08-07T04:48:40.824Z,2233.037
2023-08-07T04:49:41.269Z,2244.432
2023-08-07T04:50:40.760Z,2468.650
2023-08-07T04:51:43.588Z,2457.255
2023-08-07T04:52:41.059Z,2475.712
2023-08-07T04:53:40.473Z,2469.935
2023-08-07T04:54:41.022Z,2478.281
2023-08-07T04:55:40.493Z,2559.493
2023-08-07T04:56:40.995Z,2671.683
2023-08-07T04:57:40.421Z,2717.426
2023-08-07T04:58:40.957Z,2933.458
2023-08-07T04:59:40.401Z,2797.676
2023-08-07T05:00:41.209Z,2889.963
2023-08-07T05:01:40.817Z,3147.084
2023-08-07T05:02:41.809Z,3205.667
2023-08-07T05:03:42.282Z,3288.324
2023-08-07T05:04:40.810Z,3317.535
2023-08-07T05:05:41.266Z,3580.273
2023-08-07T05:06:40.801Z,3783.627
2023-08-07T05:07:41.211Z,3972.054
2023-08-07T05:08:40.718Z,3786.837
2023-08-07T05:09:41.199Z,3951.350
2023-08-07T05:10:40.685Z,4139.295
2023-08-07T05:11:41.232Z,3766.935
2023-08-07T05:12:40.666Z,3916.521
2023-08-07T05:13:41.126Z,4113.133
2023-08-07T05:14:40.509Z,4414.874
2023-08-07T05:15:41.208Z,4028.229
2023-08-07T05:17:41.632Z,4592.868
2023-08-07T05:18:41.228Z,4109.282
2023-08-07T05:19:40.686Z,4388.070
2023-08-07T05:20:41.202Z,4159.518
2023-08-07T05:21:41.315Z,4601.695
2023-08-07T05:22:40.760Z,4750.318
2023-08-07T05:23:41.309Z,4713.403
2023-08-07T05:24:40.785Z,4741.009
2023-08-07T05:25:41.344Z,4952.228
2023-08-07T05:26:40.724Z,4425.146
2023-08-07T05:27:41.335Z,4474.258
2023-08-07T05:28:40.740Z,4874.385
2023-08-07T05:29:41.276Z,4091.305
2023-08-07T05:30:40.812Z,3869.815
2023-08-07T05:31:44.420Z,4403.639
2023-08-07T05:32:41.090Z,4409.577
2023-08-07T05:33:40.623Z,4792.690
2023-08-07T05:34:41.199Z,4780.974
2023-08-07T05:35:40.596Z,4414.874
2023-08-07T05:36:41.105Z,4249.077
2023-08-07T05:37:40.639Z,4021.488
2023-08-07T05:38:41.159Z,4681.464
2023-08-07T05:39:40.701Z,4886.422
2023-08-07T05:40:41.189Z,4867.805
2023-08-07T05:41:40.641Z,4990.426
2023-08-07T05:42:41.156Z,5603.215
2023-08-07T05:43:40.679Z,5890.189
2023-08-07T05:44:41.125Z,5698.874
2023-08-07T05:45:40.525Z,5935.129
2023-08-07T05:46:41.347Z,6911.130
2023-08-07T05:47:41.007Z,7511.079
2023-08-07T05:49:42.534Z,8191.438
2023-08-07T05:50:41.031Z,8586.429
2023-08-07T05:51:40.447Z,8614.517
2023-08-07T05:52:40.895Z,8189.833
2023-08-07T05:53:41.346Z,8196.093
2023-08-07T05:55:41.569Z,8711.779
2023-08-07T05:56:41.093Z,8489.166
2023-08-07T05:57:40.502Z,8805.351
2023-08-07T05:58:40.968Z,8663.950
2023-08-07T05:59:40.483Z,9518.132
2023-08-07T06:00:40.956Z,9464.043
2023-08-07T06:01:40.894Z,10818.663
2023-08-07T06:02:41.629Z,11164.701
2023-08-07T06:03:41.230Z,11163.417
2023-08-07T06:04:40.692Z,11009.818
2023-08-07T06:05:41.187Z,11382.981
2023-08-07T06:06:40.752Z,11265.495
2023-08-07T06:07:41.354Z,10462.674
2023-08-07T06:08:40.851Z,10660.410
2023-08-07T06:09:41.340Z,11312.843
2023-08-07T06:10:40.948Z,11093.439
2023-08-07T06:11:41.686Z,8990.247
2023-08-07T06:12:41.167Z,9990.483
2023-08-07T06:13:46.106Z,10654.472
2023-08-07T06:14:40.539Z,10928.927
2023-08-07T06:15:41.050Z,11927.879
2023-08-07T06:16:40.941Z,11613.299
2023-08-07T06:19:45.603Z,11591.631
2023-08-07T06:20:41.107Z,11142.713
2023-08-07T06:21:40.606Z,11668.511
2023-08-07T06:22:41.055Z,11658.560
2023-08-07T06:23:40.730Z,10105.401
2023-08-07T06:24:41.239Z,11188.615
2023-08-07T06:25:40.689Z,9712.016
2023-08-07T06:26:41.268Z,10201.540
2023-08-07T06:28:41.443Z,10679.188
2023-08-07T06:29:40.854Z,10036.867
2023-08-07T06:30:41.333Z,10446.624
2023-08-07T06:31:40.997Z,11271.755
2023-08-07T06:32:40.599Z,10536.504
2023-08-07T06:33:41.194Z,11523.900
2023-08-07T06:36:40.726Z,9144.166
2023-08-07T06:37:41.246Z,8917.861
2023-08-07T06:38:40.652Z,8988.481
2023-08-07T06:39:41.181Z,8179.882
2023-08-07T06:40:41.112Z,8928.134
2023-08-07T06:41:40.616Z,8617.566
2023-08-07T06:42:41.177Z,8717.397
2023-08-07T06:43:40.677Z,9336.767
2023-08-07T06:44:41.188Z,8076.200
2023-08-07T06:46:41.522Z,8294.961
2023-08-07T06:47:41.390Z,8066.891
2023-08-07T06:48:40.837Z,9180.279
2023-08-07T06:49:41.359Z,10474.551
2023-08-07T06:51:41.294Z,9858.392
2023-08-07T06:52:40.699Z,9908.468
2023-08-07T06:53:41.160Z,9671.409
2023-08-07T06:54:40.632Z,8543.415
2023-08-07T06:55:41.118Z,9982.779
2023-08-07T06:56:40.568Z,9720.201
2023-08-07T06:57:41.061Z,9491.328
2023-08-07T06:58:40.518Z,10463.958
2023-08-07T06:59:41.175Z,10509.861
2023-08-07T07:00:40.895Z,9362.768
2023-08-07T07:01:41.744Z,9035.669
2023-08-07T07:02:41.603Z,9424.560
2023-08-07T07:04:40.918Z,9653.112
2023-08-07T07:05:41.387Z,9528.564
2023-08-07T07:06:40.906Z,10302.014
2023-08-07T07:07:41.596Z,10068.646
2023-08-07T07:08:41.091Z,10172.169
2023-08-07T07:09:40.584Z,9932.863
2023-08-07T07:10:41.303Z,10288.050
2023-08-07T07:11:40.787Z,10767.143
2023-08-07T07:12:41.476Z,10903.728
2023-08-07T07:13:40.888Z,12240.854
2023-08-07T07:14:41.335Z,10873.233
2023-08-07T07:15:40.996Z,11880.050
2023-08-07T07:16:43.451Z,11079.797
2023-08-07T07:17:41.154Z,12784.948
2023-08-07T07:18:40.673Z,12355.130
2023-08-07T07:19:41.184Z,12669.870
2023-08-07T07:20:40.632Z,13419.726
2023-08-07T07:21:41.105Z,13957.240
2023-08-07T07:23:41.083Z,15218.610
2023-08-07T07:24:40.551Z,13160.358
2023-08-07T07:25:42.092Z,12796.344
2023-08-07T07:26:40.695Z,12627.819
2023-08-07T07:27:41.396Z,12190.136
2023-08-07T07:28:42.259Z,12213.247
2023-08-07T07:29:40.714Z,12143.751
2023-08-07T07:30:41.525Z,10796.514
2023-08-07T07:31:41.497Z,10321.755
2023-08-07T07:32:41.336Z,11395.340
2023-08-07T07:33:43.120Z,11962.867
2023-08-07T07:34:40.666Z,11753.094
2023-08-07T07:35:41.136Z,12918.645
2023-08-07T07:38:40.627Z,11971.855
2023-08-07T07:39:41.326Z,13367.563
2023-08-07T07:40:40.800Z,13101.134
2023-08-07T07:41:41.383Z,13443.159
2023-08-07T07:42:41.130Z,11794.021
2023-08-07T07:43:40.652Z,11978.757
2023-08-07T07:44:41.202Z,13280.733
2023-08-07T07:45:41.304Z,12934.214
2023-08-07T07:47:41.286Z,16554.451
2023-08-07T07:48:40.758Z,17167.561
2023-08-07T07:49:41.222Z,15641.367
2023-08-07T07:50:40.745Z,16258.811
2023-08-07T07:51:41.989Z,16171.659
2023-08-07T07:52:40.422Z,15595.945
2023-08-07T07:53:42.273Z,16691.840
2023-08-07T07:54:40.720Z,19887.074
2023-08-07T07:55:41.163Z,18544.652
2023-08-07T07:56:40.660Z,17093.250
2023-08-07T07:57:41.240Z,18321.877
2023-08-07T07:58:40.803Z,16887.811
2023-08-07T07:59:41.412Z,16048.395
2023-08-07T08:00:40.983Z,17360.482
2023-08-07T08:01:40.462Z,17813.254
2023-08-07T08:02:43.399Z,17511.514
2023-08-07T08:03:41.785Z,15999.924
2023-08-07T08:04:42.154Z,16534.229
2023-08-07T08:05:40.675Z,16524.438
2023-08-07T08:06:41.218Z,15749.062
2023-08-07T08:07:41.138Z,15581.661
2023-08-07T08:08:40.551Z,16325.418
2023-08-07T08:09:41.141Z,16370.358
2023-08-07T08:10:40.754Z,17507.180
2023-08-07T08:11:41.222Z,18693.756
2023-08-07T08:12:40.749Z,19204.307
2023-08-07T08:13:41.891Z,18234.084
2023-08-07T08:16:40.948Z,17275.578
2023-08-07T08:17:41.947Z,19051.672
2023-08-07T08:18:41.534Z,20665.018
2023-08-07T08:20:41.322Z,23207.818
2023-08-07T08:23:40.889Z,23802.471
2023-08-07T08:24:41.530Z,22086.244
2023-08-07T08:25:40.990Z,23597.031
2023-08-07T08:26:40.444Z,21675.203
2023-08-07T08:27:40.937Z,26214.305
2023-08-07T08:28:41.603Z,24519.906
2023-08-07T08:29:41.123Z,26731.275
2023-08-07T08:30:40.720Z,23916.426
2023-08-07T08:31:41.827Z,24311.256
2023-08-07T08:32:41.541Z,26686.014
2023-08-07T08:33:41.046Z,24338.861
2023-08-07T08:35:41.222Z,22683.625
2023-08-07T08:36:40.802Z,23527.053
2023-08-07T08:37:41.302Z,22048.848
2023-08-07T08:38:40.786Z,22184.311
2023-08-07T08:39:41.466Z,18961.309
2023-08-07T08:40:42.448Z,17845.193
2023-08-07T08:41:40.976Z,18522.502
2023-08-07T08:42:40.491Z,19615.828
2023-08-07T08:43:41.041Z,16732.125
2023-08-07T08:44:40.463Z,16817.029
2023-08-07T08:45:41.062Z,16218.686
2023-08-07T08:46:40.881Z,17727.225
2023-08-07T08:47:41.626Z,19795.428
2023-08-07T08:48:41.166Z,18368.904
2023-08-07T08:49:40.614Z,18757.314
2023-08-07T08:50:41.145Z,20447.539
2023-08-07T08:51:40.705Z,19566.074
2023-08-07T08:52:41.216Z,19852.244
2023-08-07T08:53:40.647Z,20124.773
2023-08-07T08:54:41.109Z,19945.977
2023-08-07T08:55:40.541Z,20265.693
2023-08-07T08:56:41.134Z,20448.021
2023-08-07T08:57:40.552Z,22252.201
2023-08-07T08:58:41.368Z,20819.578
2023-08-07T08:59:40.839Z,19786.762
2023-08-07T09:00:41.373Z,18645.928
2023-08-07T09:01:41.596Z,17259.207
2023-08-07T09:02:42.514Z,20273.236
2023-08-07T09:03:41.441Z,19276.371
2023-08-07T09:04:40.907Z,22677.688
2023-08-07T09:05:41.491Z,20396.180
2023-08-07T09:06:43.348Z,22676.082
2023-08-07T09:07:40.996Z,25295.281
2023-08-07T09:08:40.514Z,23297.699
2023-08-07T09:09:40.962Z,23739.074
2023-08-07T09:12:40.535Z,21581.793
2023-08-07T09:13:41.138Z,20188.652
2023-08-07T09:14:40.670Z,21406.045
2023-08-07T09:15:41.267Z,19496.738
2023-08-07T09:16:41.657Z,19993.004
2023-08-07T09:17:41.451Z,20674.326
2023-08-07T09:18:40.992Z,21663.326
2023-08-07T09:19:40.423Z,21894.447
2023-08-07T09:20:40.949Z,23112.482
2023-08-07T09:21:41.976Z,21868.768
2023-08-07T09:22:40.442Z,24378.023
2023-08-07T09:23:40.994Z,23852.227
2023-08-07T09:24:40.426Z,21909.695
2023-08-07T09:25:41.225Z,22519.916
2023-08-07T09:26:40.746Z,22480.594
2023-08-07T09:27:41.312Z,24572.068
2023-08-07T09:28:40.844Z,24740.111
2023-08-07T09:29:41.291Z,24805.275
2023-08-07T09:30:40.969Z,23945.637
2023-08-07T09:31:40.700Z,23547.275
2023-08-07T09:32:41.515Z,21593.830
2023-08-07T09:33:41.072Z,20403.242
2023-08-07T09:35:41.567Z,18554.281
2023-08-07T09:36:40.987Z,17938.121
2023-08-07T09:37:40.518Z,18601.309
2023-08-07T09:38:41.057Z,20103.908
2023-08-07T09:39:40.551Z,19552.109
2023-08-07T09:40:41.177Z,18486.871
2023-08-07T09:41:40.652Z,17251.021
2023-08-07T09:42:41.115Z,16665.197
2023-08-07T09:43:40.786Z,18714.301
2023-08-07T09:44:41.303Z,18071.498
2023-08-07T09:45:40.708Z,16695.371
2023-08-07T09:46:41.563Z,16742.396
2023-08-07T09:47:41.262Z,16093.495
2023-08-07T09:48:40.870Z,16874.008
2023-08-07T09:49:41.410Z,16361.852
2023-08-07T09:50:40.856Z,17959.148
2023-08-07T09:51:41.552Z,19736.686
2023-08-07T09:52:40.998Z,23864.424
2023-08-07T09:53:40.505Z,24103.730
2023-08-07T09:54:41.042Z,29796.344
2023-08-07T09:55:40.597Z,29453.996
2023-08-07T09:56:41.082Z,27091.277
2023-08-07T09:57:40.647Z,28278.494
2023-08-07T09:58:41.143Z,28347.992
2023-08-07T09:59:40.731Z,30240.768
2023-08-07T10:00:41.254Z,30868.805
2023-08-07T10:01:41.325Z,29107.799
2023-08-07T10:02:41.667Z,26406.424
2023-08-07T10:03:42.595Z,27545.170
2023-08-07T10:04:41.152Z,30719.861
2023-08-07T10:05:41.458Z,34139.152
2023-08-07T10:06:41.018Z,37851.195
2023-08-07T10:07:40.375Z,37014.188
2023-08-07T10:08:40.959Z,39339.352
2023-08-07T10:09:40.458Z,33932.590
2023-08-07T10:10:40.992Z,37948.781
2023-08-07T10:11:40.568Z,36482.934
2023-08-07T10:12:41.016Z,36427.883
2023-08-07T10:13:50.336Z,42251.785
2023-08-07T10:16:41.235Z,42996.344
2023-08-07T10:17:41.394Z,46138.773
2023-08-07T10:18:41.052Z,48360.254
2023-08-07T10:23:40.526Z,37358.621
2023-08-07T10:24:41.067Z,34766.227
2023-08-07T10:25:40.556Z,33198.141
2023-08-07T10:26:41.043Z,36945.816
2023-08-07T10:27:40.520Z,34396.113
2023-08-07T10:28:42.033Z,37420.895
2023-08-07T10:29:40.502Z,36694.793
2023-08-07T10:30:40.977Z,30768.973
2023-08-07T10:31:40.783Z,32728.037
2023-08-07T10:32:41.516Z,28625.176
2023-08-07T10:33:40.974Z,31277.277
2023-08-07T10:34:40.427Z,34133.855
2023-08-07T10:35:40.907Z,36495.934
2023-08-07T10:36:41.414Z,37345.781
2023-08-07T10:37:40.877Z,35649.137
2023-08-07T10:38:41.416Z,33505.016
2023-08-07T10:39:40.931Z,36730.426
2023-08-07T10:40:41.764Z,37191.863
2023-08-07T10:41:41.310Z,42364.297
2023-08-07T10:43:41.261Z,46871.297
2023-08-07T10:44:40.706Z,42948.996
2023-08-07T10:45:43.948Z,49342.355
2023-08-07T10:46:42.194Z,44427.043
2023-08-07T10:48:40.654Z,40840.188
2023-08-07T10:49:41.155Z,42616.922
2023-08-07T10:50:40.681Z,46440.676
2023-08-07T10:51:41.340Z,46972.734
2023-08-07T10:52:40.838Z,38215.852
2023-08-07T10:53:41.381Z,42069.457
2023-08-07T10:54:40.824Z,45696.598
2023-08-07T10:55:41.228Z,38109.121
2023-08-07T10:56:40.779Z,37500.023
2023-08-07T10:57:41.212Z,35723.609
2023-08-07T10:58:40.912Z,35324.605
2023-08-07T10:59:41.366Z,31162.359
2023-08-07T11:00:40.983Z,30235.793
2023-08-07T11:01:40.911Z,33808.363
2023-08-07T11:02:40.870Z,32079.135
2023-08-07T11:03:41.484Z,27461.871
2023-08-07T11:04:41.243Z,31637.117
2023-08-07T11:05:40.723Z,36786.117
2023-08-07T11:06:41.368Z,32874.574
2023-08-07T11:07:40.821Z,30919.041
2023-08-07T11:08:43.050Z,29100.094
2023-08-07T11:09:40.513Z,37208.715
2023-08-07T11:10:40.980Z,39209.828
2023-08-07T11:11:40.591Z,34918.219
2023-08-07T11:12:41.175Z,40887.535
2023-08-07T11:13:40.835Z,50970.629
2023-08-07T11:14:41.619Z,52542.402
2023-08-07T11:15:41.159Z,47787.590
2023-08-07T11:16:40.927Z,43851.648
2023-08-07T11:17:41.686Z,41126.039
2023-08-07T11:18:41.189Z,42403.457
2023-08-07T11:20:41.129Z,49569.945
2023-08-07T11:21:43.602Z,55389.352
2023-08-07T11:22:41.109Z,51018.938
2023-08-07T11:23:40.502Z,51802.176
2023-08-07T11:24:42.274Z,44414.203
2023-08-07T11:25:40.770Z,37074.215
2023-08-07T11:26:41.474Z,40719.332
2023-08-07T11:27:41.087Z,40012.809
2023-08-07T11:28:40.631Z,40518.707
2023-08-07T11:29:41.084Z,42434.434
2023-08-07T11:30:40.571Z,32329.836
2023-08-07T11:31:41.612Z,33018.703
2023-08-07T11:32:41.683Z,33169.895
2023-08-07T11:33:41.261Z,29943.521
2023-08-07T11:34:40.641Z,28660.484
2023-08-07T11:35:41.204Z,30117.344
2023-08-07T11:36:40.720Z,26499.674
2023-08-07T11:37:41.185Z,27506.330
2023-08-07T11:38:40.626Z,24888.734
2023-08-07T11:39:41.241Z,24700.949
2023-08-07T11:40:40.718Z,24059.752
2023-08-07T11:41:41.123Z,26121.215
2023-08-07T11:42:40.617Z,23709.863
2023-08-07T11:43:41.259Z,20113.379
2023-08-07T11:44:40.743Z,21995.402
2023-08-07T11:45:41.812Z,24396.803
2023-08-07T11:46:41.273Z,24675.109
2023-08-07T11:47:41.023Z,19905.691
2023-08-07T11:48:40.505Z,17541.527
2023-08-07T11:49:40.994Z,19673.609
2023-08-07T11:50:40.510Z,17043.334
2023-08-07T11:51:41.040Z,18283.197
2023-08-07T11:52:40.482Z,19479.242
2023-08-07T11:53:40.957Z,21549.854
2023-08-07T11:54:41.543Z,20606.434
2023-08-07T11:55:44.385Z,25078.768
2023-08-07T11:56:40.871Z,31999.527
2023-08-07T11:57:41.382Z,33663.750
2023-08-07T11:58:40.891Z,33944.305
2023-08-07T11:59:41.416Z,27395.104
2023-08-07T12:01:41.780Z,26994.014
2023-08-07T12:02:41.438Z,32772.496
2023-08-07T12:03:41.291Z,32289.391
2023-08-07T12:04:40.940Z,30931.400
2023-08-07T12:05:41.352Z,27236.529
2023-08-07T12:06:40.765Z,24908.156
2023-08-07T12:08:40.715Z,27483.859
2023-08-07T12:09:41.316Z,27786.080
2023-08-07T12:10:40.821Z,27236.207
2023-08-07T12:11:41.490Z,32035.961
2023-08-07T12:12:41.019Z,36704.586
2023-08-07T12:13:40.503Z,37053.352
2023-08-07T12:14:41.064Z,38024.859
2023-08-07T12:15:40.713Z,45834.949
2023-08-07T12:16:41.464Z,41582.820
2023-08-07T12:17:44.801Z,32980.023
2023-08-07T12:18:41.226Z,31455.111
2023-08-07T12:20:41.275Z,28445.896
2023-08-07T12:21:42.061Z,27195.281
2023-08-07T12:22:40.546Z,26841.379
2023-08-07T12:23:42.780Z,27922.346
2023-08-07T12:24:41.358Z,30062.613
2023-08-07T12:25:40.906Z,25881.748
2023-08-07T12:26:41.472Z,26464.684
2023-08-07T12:27:40.998Z,27457.057
2023-08-07T12:28:40.461Z,26900.441
2023-08-07T12:29:40.993Z,21029.674
2023-08-07T12:30:40.460Z,21029.191
2023-08-07T12:31:44.317Z,23081.344
2023-08-07T12:32:41.070Z,22944.920
2023-08-07T12:33:40.611Z,27166.391
2023-08-07T12:35:41.092Z,17992.852
2023-08-07T12:38:40.564Z,23593.500
2023-08-07T12:40:48.567Z,26030.211
2023-08-07T12:42:40.986Z,25812.092
2023-08-07T12:44:40.963Z,24676.715
2023-08-07T12:46:47.600Z,23291.920
2023-08-07T12:47:41.531Z,23834.893
2023-08-07T12:51:40.870Z,13750.677
2023-08-07T12:52:41.738Z,10945.298
2023-08-07T12:53:41.187Z,11617.793
2023-08-07T12:54:40.727Z,11561.457
2023-08-07T12:55:41.224Z,9726.942
2023-08-07T12:56:40.687Z,10457.538
2023-08-07T12:57:41.140Z,11273.841
2023-08-07T12:58:42.451Z,13559.200
2023-08-07T12:59:41.367Z,15037.887
2023-08-07T13:00:40.829Z,15253.117
2023-08-07T13:01:41.783Z,14808.532
2023-08-07T13:02:41.755Z,13313.314
2023-08-07T13:03:41.471Z,14977.218